createdAt,value
2022-10-31T00:01:31.629Z,36.30
2022-10-31T00:04:01.623Z,29.48
2022-10-31T00:06:30.336Z,34.33
2022-10-31T00:09:01.792Z,38.13
2022-10-31T00:11:30.780Z,34.38
2022-10-31T00:13:59.897Z,32.90
2022-10-31T00:16:29.757Z,40.75
2022-10-31T00:19:01.935Z,35.22
2022-10-31T00:21:32.037Z,37.83
2022-10-31T00:24:01.243Z,36.53
2022-10-31T00:26:32.145Z,34.72
2022-10-31T00:29:01.039Z,34.22
2022-10-31T00:31:29.798Z,39.50
2022-10-31T00:33:59.619Z,32.47
2022-10-31T00:36:30.034Z,36.20
2022-10-31T00:39:00.165Z,35.83
2022-10-31T00:41:28.274Z,37.60
2022-10-31T00:43:56.596Z,38.40
2022-10-31T00:46:25.760Z,41.03
2022-10-31T00:48:53.911Z,47.20
2022-10-31T00:51:22.332Z,43.50
2022-10-31T00:53:51.849Z,40.70
2022-10-31T00:56:20.050Z,44.65
2022-10-31T00:58:48.145Z,41.13
2022-10-31T01:01:16.926Z,44.42
2022-10-31T01:03:45.230Z,46.47
2022-10-31T01:06:16.848Z,46.85
2022-10-31T01:08:45.194Z,49.97
2022-10-31T01:11:19.248Z,43.00
2022-10-31T01:13:48.688Z,45.58
2022-10-31T01:16:20.351Z,47.38
2022-10-31T01:18:49.139Z,45.75
2022-10-31T01:21:20.359Z,47.40
2022-10-31T01:23:51.162Z,43.63
2022-10-31T01:26:23.719Z,45.22
2022-10-31T01:28:55.812Z,49.75
2022-10-31T01:31:27.848Z,49.60
2022-10-31T01:33:57.526Z,53.15
2022-10-31T01:36:28.308Z,49.22
2022-10-31T01:39:06.728Z,56.20
2022-10-31T01:41:40.123Z,48.00
2022-10-31T01:44:51.726Z,49.17
2022-10-31T01:47:28.697Z,51.15
2022-10-31T01:50:02.849Z,61.33
2022-10-31T01:52:37.634Z,54.10
2022-10-31T01:55:13.450Z,56.55
2022-10-31T01:57:48.664Z,48.85
2022-10-31T02:00:21.809Z,51.15
2022-10-31T02:02:52.202Z,51.50
2022-10-31T02:05:24.989Z,54.78
2022-10-31T02:08:00.186Z,54.35
2022-10-31T02:10:34.458Z,49.67
2022-10-31T02:13:07.258Z,50.40
2022-10-31T02:15:41.309Z,56.70
2022-10-31T02:18:10.615Z,57.00
2022-10-31T02:20:53.079Z,49.38
2022-10-31T02:24:11.950Z,51.40
2022-10-31T02:27:29.784Z,48.58
2022-10-31T02:30:14.880Z,51.15
2022-10-31T02:33:00.956Z,50.80
2022-10-31T02:35:52.312Z,57.75
2022-10-31T02:38:44.580Z,54.45
2022-10-31T02:41:28.924Z,51.20
2022-10-31T02:44:11.407Z,53.85
2022-10-31T02:46:49.820Z,51.67
2022-10-31T02:49:31.812Z,58.08
2022-10-31T02:52:00.103Z,55.97
2022-10-31T02:54:30.950Z,64.28
2022-10-31T02:57:06.238Z,54.08
2022-10-31T02:59:38.703Z,58.00
2022-10-31T03:02:58.463Z,60.88
2022-10-31T03:05:51.794Z,53.05
2022-10-31T03:08:29.039Z,57.17
2022-10-31T03:11:02.968Z,56.70
2022-10-31T03:13:41.299Z,48.60
2022-10-31T03:16:17.164Z,56.33
2022-10-31T03:18:54.288Z,61.50
2022-10-31T03:21:30.527Z,61.05
2022-10-31T03:24:04.112Z,51.00
2022-10-31T03:26:33.166Z,58.22
2022-10-31T03:29:06.695Z,62.65
2022-10-31T03:31:43.526Z,60.88
2022-10-31T03:34:14.622Z,59.25
2022-10-31T03:36:46.587Z,54.13
2022-10-31T03:39:19.775Z,60.58
2022-10-31T03:41:55.220Z,51.58
2022-10-31T03:44:26.127Z,60.38
2022-10-31T03:47:01.713Z,62.45
2022-10-31T03:49:31.439Z,63.22
2022-10-31T03:52:11.196Z,66.05
2022-10-31T03:54:46.077Z,73.93
2022-10-31T03:57:21.659Z,62.65
2022-10-31T03:59:58.088Z,69.18
2022-10-31T04:02:34.583Z,69.65
2022-10-31T04:05:04.797Z,68.53
2022-10-31T04:07:40.851Z,68.90
2022-10-31T04:10:14.532Z,79.18
2022-10-31T04:12:57.021Z,73.07
2022-10-31T04:15:30.920Z,74.78
2022-10-31T04:18:03.164Z,65.80
2022-10-31T04:20:33.503Z,67.65
2022-10-31T04:23:03.636Z,73.38
2022-10-31T04:25:33.048Z,74.18
2022-10-31T04:28:01.700Z,69.88
2022-10-31T04:30:31.773Z,72.45
2022-10-31T04:33:00.802Z,74.60
2022-10-31T04:35:29.181Z,71.47
2022-10-31T04:37:57.464Z,75.43
2022-10-31T04:40:27.300Z,80.97
2022-10-31T04:43:34.135Z,78.90
2022-10-31T04:46:03.582Z,79.13
2022-10-31T04:48:32.049Z,73.18
2022-10-31T04:51:04.878Z,67.25
2022-10-31T04:53:33.868Z,74.45
2022-10-31T04:56:29.420Z,71.95
2022-10-31T04:59:00.797Z,65.50
2022-10-31T05:01:33.152Z,80.13
2022-10-31T05:04:02.330Z,73.35
2022-10-31T05:06:32.347Z,73.30
2022-10-31T05:09:01.053Z,76.20
2022-10-31T05:11:31.098Z,64.60
2022-10-31T05:14:09.986Z,67.43
2022-10-31T05:17:01.125Z,68.65
2022-10-31T05:19:52.069Z,69.45
2022-10-31T05:22:45.514Z,74.18
2022-10-31T05:25:14.472Z,70.43
2022-10-31T05:27:45.915Z,69.55
2022-10-31T05:30:18.052Z,71.20
2022-10-31T05:32:48.775Z,65.13
2022-10-31T05:35:35.743Z,59.83
2022-10-31T05:38:25.540Z,68.70
2022-10-31T05:41:00.948Z,77.03
2022-10-31T05:43:31.455Z,68.03
2022-10-31T05:45:59.686Z,71.90
2022-10-31T05:48:46.224Z,66.80
2022-10-31T05:51:32.719Z,69.88
2022-10-31T05:54:00.953Z,78.20
2022-10-31T05:56:29.492Z,77.90
2022-10-31T05:58:59.219Z,69.43
2022-10-31T06:01:28.621Z,71.53
2022-10-31T06:03:59.223Z,72.88
2022-10-31T06:06:27.456Z,73.72
2022-10-31T06:08:55.751Z,69.82
2022-10-31T06:11:25.091Z,64.47
2022-10-31T06:14:06.845Z,57.72
2022-10-31T06:16:42.563Z,66.78
2022-10-31T06:19:33.915Z,73.95
2022-10-31T06:22:02.222Z,64.80
2022-10-31T06:24:30.986Z,68.53
2022-10-31T06:27:19.454Z,66.07
2022-10-31T06:29:49.187Z,67.88
2022-10-31T06:32:30.188Z,65.53
2022-10-31T06:34:58.325Z,67.57
2022-10-31T06:37:26.511Z,64.97
2022-10-31T06:39:59.799Z,65.25
2022-10-31T06:42:27.972Z,67.68
2022-10-31T06:44:57.420Z,69.07
2022-10-31T06:48:11.003Z,68.40
2022-10-31T06:50:37.177Z,70.80
2022-10-31T06:53:05.630Z,65.18
2022-10-31T06:55:33.870Z,64.45
2022-10-31T06:58:03.622Z,75.72
2022-10-31T07:00:34.459Z,63.65
2022-10-31T07:03:13.256Z,62.08
2022-10-31T07:05:42.142Z,70.00
2022-10-31T07:08:14.465Z,66.65
2022-10-31T07:10:44.767Z,66.78
2022-10-31T07:13:15.819Z,70.72
2022-10-31T07:15:53.608Z,64.20
2022-10-31T07:18:22.921Z,64.75
2022-10-31T07:20:51.252Z,60.63
2022-10-31T07:23:20.766Z,63.13
2022-10-31T07:26:01.767Z,58.60
2022-10-31T07:28:40.267Z,54.10
2022-10-31T07:31:10.305Z,63.90
2022-10-31T07:33:39.946Z,50.05
2022-10-31T07:36:26.648Z,49.08
2022-10-31T07:38:59.296Z,56.58
2022-10-31T07:41:27.486Z,52.75
2022-10-31T07:43:55.971Z,49.72
2022-10-31T07:46:45.390Z,43.28
2022-10-31T07:49:31.857Z,50.88
2022-10-31T07:52:20.252Z,48.05
2022-10-31T07:55:08.937Z,43.40
2022-10-31T07:57:38.605Z,42.72
2022-10-31T08:00:11.393Z,48.33
2022-10-31T08:02:46.868Z,35.70
2022-10-31T08:05:49.768Z,40.28
2022-10-31T08:08:38.523Z,35.08
2022-10-31T08:11:08.380Z,37.92
2022-10-31T08:13:36.539Z,34.83
2022-10-31T08:16:05.702Z,38.20
2022-10-31T08:18:39.327Z,38.50
2022-10-31T08:21:11.364Z,35.80
2022-10-31T08:23:39.531Z,34.47
2022-10-31T08:26:09.318Z,37.60
2022-10-31T08:28:37.661Z,38.33
2022-10-31T08:31:06.842Z,36.85
2022-10-31T08:33:41.995Z,38.78
2022-10-31T08:36:30.051Z,34.35
2022-10-31T08:39:04.868Z,38.50
2022-10-31T08:41:33.111Z,41.08
2022-10-31T08:44:02.355Z,35.22
2022-10-31T08:46:30.455Z,40.13
2022-10-31T08:49:00.065Z,38.80
2022-10-31T08:51:28.266Z,37.08
2022-10-31T08:53:57.689Z,32.63
2022-10-31T08:56:35.184Z,34.53
2022-10-31T08:59:06.633Z,33.97
2022-10-31T09:01:57.712Z,35.13
2022-10-31T09:04:28.028Z,35.05
2022-10-31T09:09:44.683Z,31.65
2022-10-31T09:12:12.738Z,31.55
2022-10-31T09:15:01.693Z,31.10
2022-10-31T09:17:52.131Z,37.97
2022-10-31T09:20:36.575Z,35.38
2022-10-31T09:23:08.400Z,34.75
2022-10-31T09:25:40.176Z,39.45
2022-10-31T09:28:26.779Z,31.13
2022-10-31T09:30:57.388Z,35.33
2022-10-31T09:33:45.887Z,33.22
2022-10-31T09:36:39.496Z,32.20
2022-10-31T09:39:21.044Z,33.83
2022-10-31T09:42:28.261Z,36.38
2022-10-31T09:45:13.354Z,44.33
2022-10-31T09:48:05.724Z,38.97
2022-10-31T09:50:43.204Z,38.97
2022-10-31T09:53:58.329Z,36.15
2022-10-31T09:56:29.689Z,38.00
2022-10-31T09:59:04.694Z,38.90
2022-10-31T10:01:45.076Z,38.95
2022-10-31T10:04:36.208Z,43.03
2022-10-31T10:07:28.687Z,40.88
2022-10-31T10:10:32.641Z,40.08
2022-10-31T10:13:44.945Z,43.70
2022-10-31T10:16:38.477Z,49.47
2022-10-31T10:19:25.207Z,44.45
2022-10-31T10:22:03.462Z,42.13
2022-10-31T10:24:53.766Z,39.17
2022-10-31T10:27:43.649Z,40.38
2022-10-31T10:30:18.338Z,36.20
2022-10-31T10:32:52.229Z,38.35
2022-10-31T10:35:27.818Z,34.78
2022-10-31T10:38:02.600Z,32.75
2022-10-31T10:40:31.408Z,34.10
2022-10-31T10:43:20.798Z,34.35
2022-10-31T10:46:14.454Z,31.63
2022-10-31T10:48:52.724Z,34.08
2022-10-31T10:51:39.116Z,36.55
2022-10-31T10:54:35.681Z,27.73
2022-10-31T10:57:20.944Z,30.73
2022-10-31T10:59:51.392Z,28.35
2022-10-31T11:02:25.158Z,28.52
2022-10-31T11:04:56.731Z,28.33
2022-10-31T11:07:26.544Z,25.63
2022-10-31T11:10:13.990Z,25.40
2022-10-31T11:12:43.789Z,28.02
2022-10-31T11:15:23.394Z,22.83
2022-10-31T11:17:54.686Z,23.05
2022-10-31T11:20:35.437Z,24.02
2022-10-31T11:23:19.498Z,24.77
2022-10-31T11:25:53.720Z,27.17
2022-10-31T11:28:22.247Z,27.88
2022-10-31T11:30:56.325Z,23.08
2022-10-31T11:33:33.051Z,26.65
2022-10-31T11:36:03.910Z,24.38
2022-10-31T11:38:42.445Z,28.83
2022-10-31T11:41:17.775Z,28.13
2022-10-31T11:43:52.263Z,22.10
2022-10-31T11:46:30.633Z,22.25
2022-10-31T11:48:59.110Z,23.83
2022-10-31T11:51:33.540Z,22.23
2022-10-31T11:54:05.146Z,26.63
2022-10-31T11:56:41.750Z,28.48
2022-10-31T11:59:27.595Z,28.50
2022-10-31T12:02:00.757Z,37.92
2022-10-31T12:04:42.551Z,43.03
2022-10-31T12:07:10.862Z,40.88
2022-10-31T12:09:41.899Z,44.45
2022-10-31T12:12:37.725Z,45.03
2022-10-31T12:15:33.099Z,43.60
2022-10-31T12:18:39.429Z,45.38
2022-10-31T12:21:25.793Z,48.42
2022-10-31T12:24:10.744Z,43.00
2022-10-31T12:26:52.483Z,42.30
2022-10-31T12:29:38.585Z,40.65
2022-10-31T12:32:31.697Z,42.38
2022-10-31T12:35:31.960Z,41.08
2022-10-31T12:38:35.727Z,46.15
2022-10-31T12:41:26.548Z,42.22
2022-10-31T12:44:07.315Z,39.42
2022-10-31T12:47:01.574Z,40.25
2022-10-31T12:49:50.357Z,38.25
2022-10-31T12:52:39.439Z,38.72
2022-10-31T12:55:25.566Z,37.53
2022-10-31T12:58:02.892Z,31.90
2022-10-31T13:00:37.705Z,38.97
2022-10-31T13:03:26.180Z,35.53
2022-10-31T13:06:00.183Z,37.35
2022-10-31T13:08:38.345Z,36.22
2022-10-31T13:11:13.566Z,35.63
2022-10-31T13:13:47.730Z,38.60
2022-10-31T13:16:19.411Z,36.80
2022-10-31T13:18:59.417Z,37.50
2022-10-31T13:21:33.011Z,42.67
2022-10-31T13:24:09.862Z,41.83
2022-10-31T13:26:43.885Z,42.20
2022-10-31T13:29:23.154Z,40.95
2022-10-31T13:31:53.129Z,36.10
2022-10-31T13:34:29.125Z,44.80
2022-10-31T13:37:07.269Z,44.30
2022-10-31T13:39:57.818Z,46.25
2022-10-31T13:42:41.501Z,44.40
2022-10-31T13:45:16.181Z,42.95
2022-10-31T13:47:44.824Z,42.55
2022-10-31T13:50:25.147Z,41.72
2022-10-31T13:52:53.322Z,38.15
2022-10-31T13:55:42.378Z,41.55
2022-10-31T13:58:28.263Z,39.58
2022-10-31T14:01:18.860Z,41.03
2022-10-31T14:04:07.840Z,36.67
2022-10-31T14:06:51.930Z,35.88
2022-10-31T14:09:29.330Z,34.00
2022-10-31T14:12:04.720Z,32.67
2022-10-31T14:14:45.869Z,31.02
2022-10-31T14:17:24.029Z,29.25
2022-10-31T14:20:03.921Z,31.67
2022-10-31T14:22:37.434Z,32.13
2022-10-31T14:25:29.015Z,27.48
2022-10-31T14:28:00.786Z,26.95
2022-10-31T14:30:31.723Z,25.73
2022-10-31T14:33:04.104Z,22.45
2022-10-31T14:35:56.106Z,27.70
2022-10-31T14:38:53.320Z,26.23
2022-10-31T14:41:50.598Z,27.90
2022-10-31T14:45:07.894Z,29.02
2022-10-31T14:47:50.280Z,25.02
2022-10-31T14:50:34.879Z,28.13
2022-10-31T14:53:08.230Z,28.25
2022-10-31T14:55:41.874Z,28.73
2022-10-31T14:58:10.507Z,24.83
2022-10-31T15:00:40.153Z,24.95
2022-10-31T15:03:17.896Z,23.55
2022-10-31T15:05:52.459Z,29.95
2022-10-31T15:08:35.177Z,27.73
2022-10-31T15:11:13.343Z,24.67
2022-10-31T15:13:49.733Z,30.17
2022-10-31T15:16:23.371Z,28.17
2022-10-31T15:18:56.948Z,29.83
2022-10-31T15:21:29.184Z,25.25
2022-10-31T15:24:01.118Z,28.65
2022-10-31T15:26:41.388Z,28.17
2022-10-31T15:29:16.301Z,25.73
2022-10-31T15:31:54.012Z,30.52
2022-10-31T15:34:30.552Z,29.00
2022-10-31T15:36:58.684Z,30.77
2022-10-31T15:39:26.838Z,26.08
2022-10-31T15:41:58.101Z,25.25
2022-10-31T15:44:30.657Z,29.40
2022-10-31T15:47:02.998Z,24.77
2022-10-31T15:49:39.561Z,30.45
2022-10-31T15:52:17.788Z,28.95
2022-10-31T15:54:52.172Z,29.75
2022-10-31T15:57:20.777Z,30.30
2022-10-31T15:59:51.364Z,26.17
2022-10-31T16:02:25.581Z,28.73
2022-10-31T16:04:57.391Z,29.15
2022-10-31T16:07:26.933Z,31.30
2022-10-31T16:09:58.658Z,32.53
2022-10-31T16:12:38.280Z,34.40
2022-10-31T16:15:15.774Z,32.25
2022-10-31T16:17:51.046Z,31.30
2022-10-31T16:20:25.919Z,33.95
2022-10-31T16:22:56.957Z,30.23
2022-10-31T16:25:30.707Z,31.05
2022-10-31T16:28:06.268Z,29.27
2022-10-31T16:30:47.919Z,30.20
2022-10-31T16:33:29.523Z,28.90
2022-10-31T16:36:15.609Z,27.10
2022-10-31T16:38:48.419Z,29.05
2022-10-31T16:41:16.669Z,31.45
2022-10-31T16:43:48.848Z,30.30
2022-10-31T16:46:26.270Z,33.78
2022-10-31T16:48:56.795Z,31.63
2022-10-31T16:51:25.006Z,31.77
2022-10-31T16:53:54.324Z,28.58
2022-10-31T16:56:29.627Z,38.35
2022-10-31T16:58:58.263Z,32.72
2022-10-31T17:01:26.605Z,34.38
2022-10-31T17:03:56.146Z,30.40
2022-10-31T17:06:24.311Z,32.45
2022-10-31T17:08:52.424Z,31.85
2022-10-31T17:11:27.028Z,34.58
2022-10-31T17:13:57.282Z,27.48
2022-10-31T17:16:25.650Z,27.00
2022-10-31T17:18:55.172Z,29.48
2022-10-31T17:21:27.916Z,28.85
2022-10-31T17:23:56.356Z,28.77
2022-10-31T17:26:24.545Z,31.92
2022-10-31T17:28:52.819Z,28.25
2022-10-31T17:31:29.559Z,30.58
2022-10-31T17:34:02.472Z,29.45
2022-10-31T17:36:32.028Z,32.92
2022-10-31T17:39:00.195Z,34.72
2022-10-31T17:41:28.411Z,34.38
2022-10-31T17:43:57.037Z,33.85
2022-10-31T17:46:25.128Z,34.35
2022-10-31T17:48:53.232Z,32.63
2022-10-31T17:51:22.806Z,35.03
2022-10-31T17:53:50.927Z,34.72
2022-10-31T17:56:19.247Z,42.03
2022-10-31T17:58:47.529Z,37.67
2022-10-31T18:01:20.445Z,41.95
2022-10-31T18:03:48.663Z,37.47
2022-10-31T18:06:17.349Z,40.63
2022-10-31T18:08:47.210Z,39.40
2022-10-31T18:11:18.548Z,45.08
2022-10-31T18:13:46.718Z,36.13
2022-10-31T18:16:19.019Z,39.10
2022-10-31T18:18:52.329Z,45.88
2022-10-31T18:21:20.777Z,39.95
2022-10-31T18:23:55.151Z,38.55
2022-10-31T18:26:24.732Z,43.80
2022-10-31T18:28:53.049Z,41.40
2022-10-31T18:31:21.806Z,42.67
2022-10-31T18:36:24.629Z,43.33
2022-10-31T18:38:54.392Z,46.08
2022-10-31T18:41:22.686Z,38.97
2022-10-31T18:43:51.425Z,42.45
2022-10-31T18:46:19.570Z,37.13
2022-10-31T18:48:47.653Z,37.55
2022-10-31T18:51:18.529Z,37.50
2022-10-31T18:53:53.438Z,38.25
2022-10-31T18:56:23.192Z,34.58
2022-10-31T18:58:52.231Z,36.38
2022-10-31T19:01:22.897Z,34.38
2022-10-31T19:03:56.182Z,31.90
2022-10-31T19:06:24.893Z,33.03
2022-10-31T19:08:59.872Z,33.85
2022-10-31T19:11:28.709Z,33.72
2022-10-31T19:13:58.243Z,30.73
2022-10-31T19:16:26.695Z,34.50
2022-10-31T19:18:56.525Z,32.28
2022-10-31T19:21:25.308Z,32.25
2022-10-31T19:23:57.259Z,35.05
2022-10-31T19:26:26.072Z,38.65
2022-10-31T19:28:56.000Z,35.85
2022-10-31T19:31:24.864Z,34.83
2022-10-31T19:33:53.052Z,34.92
2022-10-31T19:36:22.483Z,32.83
2022-10-31T19:38:54.214Z,34.80
2022-10-31T19:41:26.017Z,33.28
2022-10-31T19:43:54.841Z,35.58
2022-10-31T19:49:13.572Z,35.42
2022-10-31T19:51:41.664Z,35.20
2022-10-31T19:54:12.532Z,32.85
2022-10-31T19:56:40.628Z,33.50
2022-10-31T19:59:08.956Z,29.67
2022-10-31T20:01:37.323Z,33.90
2022-10-31T20:04:05.681Z,35.78
2022-10-31T20:06:37.276Z,34.65
2022-10-31T20:09:09.599Z,37.63
2022-10-31T20:11:39.641Z,34.35
2022-10-31T20:14:09.435Z,33.22
2022-10-31T20:16:37.840Z,31.63
2022-10-31T20:19:06.200Z,36.05
2022-10-31T20:21:39.590Z,35.90
2022-10-31T20:24:11.257Z,36.55
2022-10-31T20:26:42.431Z,34.17
2022-10-31T20:29:15.750Z,34.75
2022-10-31T20:31:45.930Z,35.00
2022-10-31T20:34:14.340Z,41.67
2022-10-31T20:36:42.441Z,43.08
2022-10-31T20:39:11.192Z,38.95
2022-10-31T20:41:40.645Z,36.78
2022-10-31T20:44:09.046Z,40.78
2022-10-31T20:46:37.257Z,40.13
2022-10-31T20:49:05.370Z,40.38
2022-10-31T20:51:33.555Z,39.30
2022-10-31T20:54:01.992Z,40.22
2022-10-31T20:56:30.342Z,41.00
2022-10-31T20:59:00.011Z,41.53
2022-10-31T21:01:31.159Z,46.75
2022-10-31T21:04:00.536Z,46.15
2022-10-31T21:06:30.603Z,40.13
2022-10-31T21:08:59.264Z,45.78
2022-10-31T21:11:29.232Z,47.50
2022-10-31T21:13:59.340Z,48.53
2022-10-31T21:16:31.001Z,46.67
2022-10-31T21:19:01.768Z,41.38
2022-10-31T21:21:33.523Z,41.90
2022-10-31T21:24:04.708Z,43.40
2022-10-31T21:26:36.782Z,44.65
2022-10-31T21:29:08.001Z,54.22
2022-10-31T21:31:37.571Z,46.95
2022-10-31T21:34:06.256Z,46.88
2022-10-31T21:36:35.456Z,48.72
2022-10-31T21:39:05.063Z,48.63
2022-10-31T21:41:33.193Z,49.17
2022-10-31T21:44:01.591Z,52.42
2022-10-31T21:46:32.935Z,48.13
2022-10-31T21:49:03.674Z,51.33
2022-10-31T21:51:34.960Z,54.38
2022-10-31T21:54:20.543Z,62.03
2022-10-31T21:56:48.773Z,50.00
2022-10-31T21:59:16.858Z,61.72
2022-10-31T22:01:46.551Z,49.78
2022-10-31T22:04:14.845Z,54.60
2022-10-31T22:06:43.099Z,49.75
2022-10-31T22:09:15.890Z,56.28
2022-10-31T22:11:44.311Z,56.17
2022-10-31T22:14:14.589Z,54.03
2022-10-31T22:16:43.505Z,55.75
2022-10-31T22:19:15.331Z,53.22
2022-10-31T22:21:46.324Z,55.67
2022-10-31T22:24:15.602Z,54.90
2022-10-31T22:26:44.527Z,57.53
2022-10-31T22:29:16.230Z,51.70
2022-10-31T22:31:48.426Z,63.30
2022-10-31T22:34:20.400Z,52.15
2022-10-31T22:36:48.516Z,61.83
2022-10-31T22:39:16.604Z,59.13
2022-10-31T22:41:44.721Z,53.80
2022-10-31T22:44:12.784Z,58.63
2022-10-31T22:46:41.278Z,52.00
2022-10-31T22:49:14.855Z,53.60
2022-10-31T22:51:45.981Z,51.40
2022-10-31T22:54:17.208Z,56.10
2022-10-31T22:56:46.348Z,52.38
2022-10-31T22:59:17.252Z,55.33
2022-10-31T23:01:46.256Z,55.05
2022-10-31T23:04:15.385Z,58.83
2022-10-31T23:06:45.379Z,49.17
2022-10-31T23:09:18.385Z,48.42
2022-10-31T23:11:47.297Z,54.47
2022-10-31T23:14:20.391Z,52.88
2022-10-31T23:16:51.635Z,55.85
2022-10-31T23:19:22.994Z,57.55
2022-10-31T23:21:55.993Z,54.63
2022-10-31T23:24:28.097Z,57.85
2022-10-31T23:27:09.641Z,55.75
2022-10-31T23:29:43.160Z,60.20
2022-10-31T23:32:16.471Z,54.53
2022-10-31T23:34:45.531Z,54.53
2022-10-31T23:37:16.579Z,55.85
2022-10-31T23:39:45.244Z,56.17
2022-10-31T23:42:14.126Z,50.40
2022-10-31T23:44:42.888Z,54.25
2022-10-31T23:47:11.417Z,56.03
2022-10-31T23:49:39.747Z,52.97
2022-10-31T23:52:08.369Z,55.90
2022-10-31T23:54:38.044Z,52.78
2022-10-31T23:57:06.823Z,54.42
2022-10-31T23:59:35.146Z,57.22
